sensor_id;sensor_type;location;lat;lon;timestamp;temperature;humidity
45843;DHT22;31563;51.744;8.252;2023-05-24T00:00:33;22.70;41.50
45843;DHT22;31563;51.744;8.252;2023-05-24T00:03:02;22.70;41.60
45843;DHT22;31563;51.744;8.252;2023-05-24T00:05:30;22.70;41.60
45843;DHT22;31563;51.744;8.252;2023-05-24T00:07:59;22.60;41.60
45843;DHT22;31563;51.744;8.252;2023-05-24T00:10:27;22.60;41.60
45843;DHT22;31563;51.744;8.252;2023-05-24T00:12:55;22.60;41.60
45843;DHT22;31563;51.744;8.252;2023-05-24T00:15:23;22.60;41.70
45843;DHT22;31563;51.744;8.252;2023-05-24T00:17:53;22.60;41.60
45843;DHT22;31563;51.744;8.252;2023-05-24T00:20:21;22.60;41.70
45843;DHT22;31563;51.744;8.252;2023-05-24T00:22:50;22.50;41.70
45843;DHT22;31563;51.744;8.252;2023-05-24T00:25:18;22.50;41.60
45843;DHT22;31563;51.744;8.252;2023-05-24T00:27:46;22.50;41.70
45843;DHT22;31563;51.744;8.252;2023-05-24T00:30:14;22.50;41.70
45843;DHT22;31563;51.744;8.252;2023-05-24T00:32:42;22.50;41.70
45843;DHT22;31563;51.744;8.252;2023-05-24T00:35:12;22.40;41.60
45843;DHT22;31563;51.744;8.252;2023-05-24T00:37:40;22.40;41.70
45843;DHT22;31563;51.744;8.252;2023-05-24T00:40:11;22.40;41.70
45843;DHT22;31563;51.744;8.252;2023-05-24T00:42:39;22.40;41.70
45843;DHT22;31563;51.744;8.252;2023-05-24T00:45:09;22.40;41.70
45843;DHT22;31563;51.744;8.252;2023-05-24T00:47:37;22.30;41.60
45843;DHT22;31563;51.744;8.252;2023-05-24T00:50:07;22.30;41.70
45843;DHT22;31563;51.744;8.252;2023-05-24T00:52:39;22.30;41.70
45843;DHT22;31563;51.744;8.252;2023-05-24T00:55:09;22.30;41.70
45843;DHT22;31563;51.744;8.252;2023-05-24T00:57:38;22.30;41.70
45843;DHT22;31563;51.744;8.252;2023-05-24T01:00:07;22.30;41.70
45843;DHT22;31563;51.744;8.252;2023-05-24T01:02:37;22.20;41.70
45843;DHT22;31563;51.744;8.252;2023-05-24T01:05:06;22.20;41.70
45843;DHT22;31563;51.744;8.252;2023-05-24T01:07:44;22.20;41.70
45843;DHT22;31563;51.744;8.252;2023-05-24T01:10:17;22.20;41.70
45843;DHT22;31563;51.744;8.252;2023-05-24T01:12:58;22.20;41.80
45843;DHT22;31563;51.744;8.252;2023-05-24T01:15:35;22.10;41.70
45843;DHT22;31563;51.744;8.252;2023-05-24T01:18:14;22.10;41.70
45843;DHT22;31563;51.744;8.252;2023-05-24T01:20:45;22.10;41.70
45843;DHT22;31563;51.744;8.252;2023-05-24T01:23:24;22.10;41.70
45843;DHT22;31563;51.744;8.252;2023-05-24T01:28:53;22.10;41.80
45843;DHT22;31563;51.744;8.252;2023-05-24T01:31:21;22.00;41.80
45843;DHT22;31563;51.744;8.252;2023-05-24T01:33:50;22.00;41.80
45843;DHT22;31563;51.744;8.252;2023-05-24T01:36:18;22.00;41.80
45843;DHT22;31563;51.744;8.252;2023-05-24T01:38:47;22.00;41.80
45843;DHT22;31563;51.744;8.252;2023-05-24T01:41:24;21.90;41.80
45843;DHT22;31563;51.744;8.252;2023-05-24T01:44:02;21.90;41.80
45843;DHT22;31563;51.744;8.252;2023-05-24T01:46:34;21.90;41.80
45843;DHT22;31563;51.744;8.252;2023-05-24T01:49:10;21.90;42.00
45843;DHT22;31563;51.744;8.252;2023-05-24T01:51:46;21.80;41.80
45843;DHT22;31563;51.744;8.252;2023-05-24T01:54:19;21.80;41.90
45843;DHT22;31563;51.744;8.252;2023-05-24T01:56:48;21.80;41.90
45843;DHT22;31563;51.744;8.252;2023-05-24T01:59:22;21.80;41.90
45843;DHT22;31563;51.744;8.252;2023-05-24T02:01:50;21.80;41.80
45843;DHT22;31563;51.744;8.252;2023-05-24T02:04:19;21.80;41.90
45843;DHT22;31563;51.744;8.252;2023-05-24T02:06:47;21.70;41.80
45843;DHT22;31563;51.744;8.252;2023-05-24T02:09:15;21.70;41.80
45843;DHT22;31563;51.744;8.252;2023-05-24T02:11:43;21.70;42.60
45843;DHT22;31563;51.744;8.252;2023-05-24T02:14:11;21.70;42.00
45843;DHT22;31563;51.744;8.252;2023-05-24T02:16:41;21.70;41.90
45843;DHT22;31563;51.744;8.252;2023-05-24T02:19:13;21.60;41.80
45843;DHT22;31563;51.744;8.252;2023-05-24T02:21:41;21.60;41.90
45843;DHT22;31563;51.744;8.252;2023-05-24T02:24:09;21.60;42.00
45843;DHT22;31563;51.744;8.252;2023-05-24T02:26:38;21.60;41.90
45843;DHT22;31563;51.744;8.252;2023-05-24T02:29:06;21.60;41.90
45843;DHT22;31563;51.744;8.252;2023-05-24T02:31:34;21.60;41.90
45843;DHT22;31563;51.744;8.252;2023-05-24T02:34:04;21.50;41.90
45843;DHT22;31563;51.744;8.252;2023-05-24T02:36:33;21.50;42.00
45843;DHT22;31563;51.744;8.252;2023-05-24T02:39:03;21.50;42.00
45843;DHT22;31563;51.744;8.252;2023-05-24T02:41:31;21.40;42.00
45843;DHT22;31563;51.744;8.252;2023-05-24T02:44:00;21.40;42.00
45843;DHT22;31563;51.744;8.252;2023-05-24T02:46:28;21.50;42.00
45843;DHT22;31563;51.744;8.252;2023-05-24T02:48:56;21.50;42.00
45843;DHT22;31563;51.744;8.252;2023-05-24T02:51:26;21.40;42.00
45843;DHT22;31563;51.744;8.252;2023-05-24T02:53:54;21.40;42.00
45843;DHT22;31563;51.744;8.252;2023-05-24T02:56:22;21.40;42.10
45843;DHT22;31563;51.744;8.252;2023-05-24T02:58:52;21.40;42.10
45843;DHT22;31563;51.744;8.252;2023-05-24T03:01:21;21.30;42.00
45843;DHT22;31563;51.744;8.252;2023-05-24T03:03:50;21.30;42.00
45843;DHT22;31563;51.744;8.252;2023-05-24T03:06:18;21.30;42.10
45843;DHT22;31563;51.744;8.252;2023-05-24T03:08:48;21.30;42.10
45843;DHT22;31563;51.744;8.252;2023-05-24T03:11:16;21.20;42.00
45843;DHT22;31563;51.744;8.252;2023-05-24T03:13:48;21.20;42.10
45843;DHT22;31563;51.744;8.252;2023-05-24T03:16:16;21.20;42.10
45843;DHT22;31563;51.744;8.252;2023-05-24T03:18:45;21.30;42.20
45843;DHT22;31563;51.744;8.252;2023-05-24T03:21:16;21.20;42.10
45843;DHT22;31563;51.744;8.252;2023-05-24T03:23:48;21.20;42.10
45843;DHT22;31563;51.744;8.252;2023-05-24T03:26:16;21.20;42.10
45843;DHT22;31563;51.744;8.252;2023-05-24T03:28:46;21.20;42.10
45843;DHT22;31563;51.744;8.252;2023-05-24T03:31:16;21.20;42.10
45843;DHT22;31563;51.744;8.252;2023-05-24T03:33:46;21.10;42.10
45843;DHT22;31563;51.744;8.252;2023-05-24T03:36:14;21.10;42.10
45843;DHT22;31563;51.744;8.252;2023-05-24T03:38:43;21.10;42.20
45843;DHT22;31563;51.744;8.252;2023-05-24T03:41:12;21.10;42.10
45843;DHT22;31563;51.744;8.252;2023-05-24T03:43:40;21.10;42.20
45843;DHT22;31563;51.744;8.252;2023-05-24T03:46:08;21.00;42.10
45843;DHT22;31563;51.744;8.252;2023-05-24T03:48:37;21.10;42.20
45843;DHT22;31563;51.744;8.252;2023-05-24T03:51:05;21.00;42.10
45843;DHT22;31563;51.744;8.252;2023-05-24T03:53:34;21.10;42.20
45843;DHT22;31563;51.744;8.252;2023-05-24T03:56:03;21.20;43.90
45843;DHT22;31563;51.744;8.252;2023-05-24T03:58:32;21.30;43.30
45843;DHT22;31563;51.744;8.252;2023-05-24T04:01:00;21.20;41.20
45843;DHT22;31563;51.744;8.252;2023-05-24T04:03:29;21.00;40.80
45843;DHT22;31563;51.744;8.252;2023-05-24T04:06:00;20.80;40.80
45843;DHT22;31563;51.744;8.252;2023-05-24T04:08:28;20.80;40.60
45843;DHT22;31563;51.744;8.252;2023-05-24T04:10:57;20.70;40.70
45843;DHT22;31563;51.744;8.252;2023-05-24T04:13:25;20.60;40.40
45843;DHT22;31563;51.744;8.252;2023-05-24T04:15:55;20.50;40.50
45843;DHT22;31563;51.744;8.252;2023-05-24T04:18:23;20.50;40.30
45843;DHT22;31563;51.744;8.252;2023-05-24T04:20:51;20.40;40.30
45843;DHT22;31563;51.744;8.252;2023-05-24T04:23:19;20.30;40.30
45843;DHT22;31563;51.744;8.252;2023-05-24T04:25:47;20.30;40.30
45843;DHT22;31563;51.744;8.252;2023-05-24T04:28:15;20.30;40.50
45843;DHT22;31563;51.744;8.252;2023-05-24T04:30:44;20.30;40.30
45843;DHT22;31563;51.744;8.252;2023-05-24T04:33:13;20.20;40.40
45843;DHT22;31563;51.744;8.252;2023-05-24T04:35:42;20.20;40.50
45843;DHT22;31563;51.744;8.252;2023-05-24T04:38:11;20.10;40.40
45843;DHT22;31563;51.744;8.252;2023-05-24T04:40:40;20.00;40.60
45843;DHT22;31563;51.744;8.252;2023-05-24T04:43:09;20.10;40.80
45843;DHT22;31563;51.744;8.252;2023-05-24T04:45:37;19.90;40.40
45843;DHT22;31563;51.744;8.252;2023-05-24T04:48:05;19.80;40.60
45843;DHT22;31563;51.744;8.252;2023-05-24T04:50:35;19.70;40.80
45843;DHT22;31563;51.744;8.252;2023-05-24T04:53:03;19.70;41.20
45843;DHT22;31563;51.744;8.252;2023-05-24T04:55:31;19.70;41.40
45843;DHT22;31563;51.744;8.252;2023-05-24T04:57:59;19.70;41.30
45843;DHT22;31563;51.744;8.252;2023-05-24T05:00:28;19.70;41.40
45843;DHT22;31563;51.744;8.252;2023-05-24T05:02:56;19.70;41.50
45843;DHT22;31563;51.744;8.252;2023-05-24T05:05:25;19.70;41.60
45843;DHT22;31563;51.744;8.252;2023-05-24T05:07:54;19.70;41.50
45843;DHT22;31563;51.744;8.252;2023-05-24T05:10:23;19.70;41.70
45843;DHT22;31563;51.744;8.252;2023-05-24T05:12:52;19.80;42.50
45843;DHT22;31563;51.744;8.252;2023-05-24T05:15:22;20.00;42.30
45843;DHT22;31563;51.744;8.252;2023-05-24T05:17:50;20.10;42.80
45843;DHT22;31563;51.744;8.252;2023-05-24T05:20:18;20.10;43.00
45843;DHT22;31563;51.744;8.252;2023-05-24T05:22:47;20.20;43.20
45843;DHT22;31563;51.744;8.252;2023-05-24T05:25:16;20.20;43.20
45843;DHT22;31563;51.744;8.252;2023-05-24T05:27:45;20.20;43.30
45843;DHT22;31563;51.744;8.252;2023-05-24T05:30:13;20.30;43.30
45843;DHT22;31563;51.744;8.252;2023-05-24T05:32:41;20.30;43.40
45843;DHT22;31563;51.744;8.252;2023-05-24T05:35:10;20.40;43.20
45843;DHT22;31563;51.744;8.252;2023-05-24T05:37:38;20.40;43.20
45843;DHT22;31563;51.744;8.252;2023-05-24T05:40:07;20.50;43.20
45843;DHT22;31563;51.744;8.252;2023-05-24T05:42:36;20.50;43.10
45843;DHT22;31563;51.744;8.252;2023-05-24T05:45:05;20.60;43.00
45843;DHT22;31563;51.744;8.252;2023-05-24T05:47:34;20.60;43.00
45843;DHT22;31563;51.744;8.252;2023-05-24T05:50:03;20.70;43.00
45843;DHT22;31563;51.744;8.252;2023-05-24T05:52:31;20.70;42.90
45843;DHT22;31563;51.744;8.252;2023-05-24T05:54:59;20.80;42.80
45843;DHT22;31563;51.744;8.252;2023-05-24T05:57:27;20.80;42.60
45843;DHT22;31563;51.744;8.252;2023-05-24T05:59:57;20.90;42.50
45843;DHT22;31563;51.744;8.252;2023-05-24T06:02:25;21.00;42.50
45843;DHT22;31563;51.744;8.252;2023-05-24T06:04:53;21.10;42.70
45843;DHT22;31563;51.744;8.252;2023-05-24T06:07:22;21.30;42.60
45843;DHT22;31563;51.744;8.252;2023-05-24T06:09:50;21.30;42.30
45843;DHT22;31563;51.744;8.252;2023-05-24T06:12:18;21.30;41.90
45843;DHT22;31563;51.744;8.252;2023-05-24T06:14:46;21.30;42.00
45843;DHT22;31563;51.744;8.252;2023-05-24T06:17:19;21.40;41.90
45843;DHT22;31563;51.744;8.252;2023-05-24T06:19:50;21.50;41.80
45843;DHT22;31563;51.744;8.252;2023-05-24T06:22:19;21.50;41.80
45843;DHT22;31563;51.744;8.252;2023-05-24T06:24:48;21.60;41.70
45843;DHT22;31563;51.744;8.252;2023-05-24T06:27:16;21.50;41.60
45843;DHT22;31563;51.744;8.252;2023-05-24T06:29:44;21.60;41.70
45843;DHT22;31563;51.744;8.252;2023-05-24T06:32:12;21.60;41.60
45843;DHT22;31563;51.744;8.252;2023-05-24T06:34:42;21.70;41.50
45843;DHT22;31563;51.744;8.252;2023-05-24T06:37:10;21.80;41.50
45843;DHT22;31563;51.744;8.252;2023-05-24T06:39:41;21.90;41.40
45843;DHT22;31563;51.744;8.252;2023-05-24T06:42:09;22.10;41.30
45843;DHT22;31563;51.744;8.252;2023-05-24T06:44:37;22.20;41.10
45843;DHT22;31563;51.744;8.252;2023-05-24T06:47:05;22.30;41.20
45843;DHT22;31563;51.744;8.252;2023-05-24T06:49:35;22.40;40.90
45843;DHT22;31563;51.744;8.252;2023-05-24T06:52:05;22.40;40.70
45843;DHT22;31563;51.744;8.252;2023-05-24T06:54:34;22.40;40.60
45843;DHT22;31563;51.744;8.252;2023-05-24T06:57:03;22.40;40.70
45843;DHT22;31563;51.744;8.252;2023-05-24T06:59:31;22.50;40.70
45843;DHT22;31563;51.744;8.252;2023-05-24T07:01:59;22.60;40.80
45843;DHT22;31563;51.744;8.252;2023-05-24T07:04:30;22.80;40.70
45843;DHT22;31563;51.744;8.252;2023-05-24T07:06:58;23.00;40.60
45843;DHT22;31563;51.744;8.252;2023-05-24T07:09:27;23.10;40.20
45843;DHT22;31563;51.744;8.252;2023-05-24T07:11:56;23.10;40.10
45843;DHT22;31563;51.744;8.252;2023-05-24T07:14:24;23.10;39.90
45843;DHT22;31563;51.744;8.252;2023-05-24T07:16:53;23.10;40.10
45843;DHT22;31563;51.744;8.252;2023-05-24T07:19:23;23.20;40.10
45843;DHT22;31563;51.744;8.252;2023-05-24T07:21:55;23.20;39.70
45843;DHT22;31563;51.744;8.252;2023-05-24T07:24:23;23.10;39.60
45843;DHT22;31563;51.744;8.252;2023-05-24T07:26:53;23.10;40.30
45843;DHT22;31563;51.744;8.252;2023-05-24T07:29:22;23.30;41.70
45843;DHT22;31563;51.744;8.252;2023-05-24T07:31:53;23.70;41.90
45843;DHT22;31563;51.744;8.252;2023-05-24T07:34:21;24.00;42.00
45843;DHT22;31563;51.744;8.252;2023-05-24T07:36:53;24.20;41.70
45843;DHT22;31563;51.744;8.252;2023-05-24T07:39:21;24.30;41.40
45843;DHT22;31563;51.744;8.252;2023-05-24T07:41:52;24.40;41.20
45843;DHT22;31563;51.744;8.252;2023-05-24T07:44:20;24.50;41.20
45843;DHT22;31563;51.744;8.252;2023-05-24T07:46:49;24.40;41.00
45843;DHT22;31563;51.744;8.252;2023-05-24T07:49:18;24.40;40.90
45843;DHT22;31563;51.744;8.252;2023-05-24T07:51:46;24.40;40.90
45843;DHT22;31563;51.744;8.252;2023-05-24T07:54:14;24.40;40.90
45843;DHT22;31563;51.744;8.252;2023-05-24T07:56:42;24.30;41.00
45843;DHT22;31563;51.744;8.252;2023-05-24T07:59:12;24.40;41.10
45843;DHT22;31563;51.744;8.252;2023-05-24T08:01:40;24.40;41.10
45843;DHT22;31563;51.744;8.252;2023-05-24T08:04:09;24.50;41.10
45843;DHT22;31563;51.744;8.252;2023-05-24T08:06:37;24.50;41.00
45843;DHT22;31563;51.744;8.252;2023-05-24T08:09:05;24.70;41.10
45843;DHT22;31563;51.744;8.252;2023-05-24T08:11:34;24.80;40.90
45843;DHT22;31563;51.744;8.252;2023-05-24T08:14:03;24.90;40.70
45843;DHT22;31563;51.744;8.252;2023-05-24T08:16:33;25.10;40.40
45843;DHT22;31563;51.744;8.252;2023-05-24T08:19:01;25.10;40.20
45843;DHT22;31563;51.744;8.252;2023-05-24T08:21:29;25.00;40.80
45843;DHT22;31563;51.744;8.252;2023-05-24T08:23:57;25.00;40.20
45843;DHT22;31563;51.744;8.252;2023-05-24T08:26:26;25.10;40.10
45843;DHT22;31563;51.744;8.252;2023-05-24T08:28:54;25.10;40.00
45843;DHT22;31563;51.744;8.252;2023-05-24T08:31:22;25.10;40.00
45843;DHT22;31563;51.744;8.252;2023-05-24T08:33:52;25.20;40.10
45843;DHT22;31563;51.744;8.252;2023-05-24T08:36:21;25.40;40.30
45843;DHT22;31563;51.744;8.252;2023-05-24T08:38:50;25.60;40.10
45843;DHT22;31563;51.744;8.252;2023-05-24T08:41:18;25.80;39.80
45843;DHT22;31563;51.744;8.252;2023-05-24T08:43:47;25.90;39.50
45843;DHT22;31563;51.744;8.252;2023-05-24T08:46:16;25.80;39.20
45843;DHT22;31563;51.744;8.252;2023-05-24T08:48:45;25.80;39.40
45843;DHT22;31563;51.744;8.252;2023-05-24T08:51:15;25.80;39.40
45843;DHT22;31563;51.744;8.252;2023-05-24T08:53:43;25.80;39.40
45843;DHT22;31563;51.744;8.252;2023-05-24T08:56:16;26.00;39.60
45843;DHT22;31563;51.744;8.252;2023-05-24T08:58:45;26.10;39.40
45843;DHT22;31563;51.744;8.252;2023-05-24T09:01:14;26.30;37.00
45843;DHT22;31563;51.744;8.252;2023-05-24T09:03:45;25.80;35.70
45843;DHT22;31563;51.744;8.252;2023-05-24T09:06:17;25.20;35.90
45843;DHT22;31563;51.744;8.252;2023-05-24T09:08:45;24.80;35.70
45843;DHT22;31563;51.744;8.252;2023-05-24T09:11:17;24.40;35.70
45843;DHT22;31563;51.744;8.252;2023-05-24T09:13:45;24.00;36.90
45843;DHT22;31563;51.744;8.252;2023-05-24T09:16:15;23.80;37.20
45843;DHT22;31563;51.744;8.252;2023-05-24T09:18:43;23.70;37.70
45843;DHT22;31563;51.744;8.252;2023-05-24T09:21:12;24.00;38.40
45843;DHT22;31563;51.744;8.252;2023-05-24T09:23:42;24.50;38.10
45843;DHT22;31563;51.744;8.252;2023-05-24T09:26:10;24.70;37.70
45843;DHT22;31563;51.744;8.252;2023-05-24T09:28:38;24.90;37.70
45843;DHT22;31563;51.744;8.252;2023-05-24T09:31:07;25.00;37.60
45843;DHT22;31563;51.744;8.252;2023-05-24T09:33:35;25.20;37.70
45843;DHT22;31563;51.744;8.252;2023-05-24T09:36:06;25.30;37.60
45843;DHT22;31563;51.744;8.252;2023-05-24T09:38:34;25.40;37.60
45843;DHT22;31563;51.744;8.252;2023-05-24T09:41:06;25.50;37.60
45843;DHT22;31563;51.744;8.252;2023-05-24T09:43:46;25.60;37.60
45843;DHT22;31563;51.744;8.252;2023-05-24T09:46:16;25.60;37.80
45843;DHT22;31563;51.744;8.252;2023-05-24T09:48:55;25.70;37.60
45843;DHT22;31563;51.744;8.252;2023-05-24T09:51:24;25.80;37.50
45843;DHT22;31563;51.744;8.252;2023-05-24T09:53:56;26.00;37.50
45843;DHT22;31563;51.744;8.252;2023-05-24T09:56:26;26.10;37.40
45843;DHT22;31563;51.744;8.252;2023-05-24T09:58:54;26.20;37.40
45843;DHT22;31563;51.744;8.252;2023-05-24T10:01:23;26.30;37.20
45843;DHT22;31563;51.744;8.252;2023-05-24T10:03:53;26.50;37.40
45843;DHT22;31563;51.744;8.252;2023-05-24T10:06:22;26.70;37.20
45843;DHT22;31563;51.744;8.252;2023-05-24T10:08:51;26.90;37.00
45843;DHT22;31563;51.744;8.252;2023-05-24T10:11:20;27.10;36.90
45843;DHT22;31563;51.744;8.252;2023-05-24T10:13:49;27.30;36.70
45843;DHT22;31563;51.744;8.252;2023-05-24T10:16:18;27.40;36.60
45843;DHT22;31563;51.744;8.252;2023-05-24T10:18:46;27.50;36.50
45843;DHT22;31563;51.744;8.252;2023-05-24T10:21:15;27.50;36.10
45843;DHT22;31563;51.744;8.252;2023-05-24T10:23:50;27.40;36.20
45843;DHT22;31563;51.744;8.252;2023-05-24T10:26:20;27.30;36.20
45843;DHT22;31563;51.744;8.252;2023-05-24T10:28:56;27.20;36.20
45843;DHT22;31563;51.744;8.252;2023-05-24T10:31:30;27.00;36.30
45843;DHT22;31563;51.744;8.252;2023-05-24T10:34:00;26.90;36.60
45843;DHT22;31563;51.744;8.252;2023-05-24T10:36:34;26.80;36.70
45843;DHT22;31563;51.744;8.252;2023-05-24T10:39:07;26.70;36.70
45843;DHT22;31563;51.744;8.252;2023-05-24T10:41:38;26.60;36.80
45843;DHT22;31563;51.744;8.252;2023-05-24T10:44:12;26.50;37.00
45843;DHT22;31563;51.744;8.252;2023-05-24T10:49:49;26.50;37.20
45843;DHT22;31563;51.744;8.252;2023-05-24T10:52:18;26.60;37.40
45843;DHT22;31563;51.744;8.252;2023-05-24T10:55:01;26.60;37.40
45843;DHT22;31563;51.744;8.252;2023-05-24T10:57:31;26.70;37.50
45843;DHT22;31563;51.744;8.252;2023-05-24T11:00:28;26.80;37.50
45843;DHT22;31563;51.744;8.252;2023-05-24T11:03:00;26.80;35.80
45843;DHT22;31563;51.744;8.252;2023-05-24T11:05:34;26.30;34.60
45843;DHT22;31563;51.744;8.252;2023-05-24T11:08:02;25.90;35.30
45843;DHT22;31563;51.744;8.252;2023-05-24T11:10:34;25.70;35.50
45843;DHT22;31563;51.744;8.252;2023-05-24T11:13:03;25.50;35.50
45843;DHT22;31563;51.744;8.252;2023-05-24T11:15:35;25.30;35.90
45843;DHT22;31563;51.744;8.252;2023-05-24T11:18:12;25.30;36.20
45843;DHT22;31563;51.744;8.252;2023-05-24T11:20:41;25.50;36.40
45843;DHT22;31563;51.744;8.252;2023-05-24T11:23:11;25.70;36.30
45843;DHT22;31563;51.744;8.252;2023-05-24T11:25:39;26.00;36.40
45843;DHT22;31563;51.744;8.252;2023-05-24T11:28:09;26.20;36.10
45843;DHT22;31563;51.744;8.252;2023-05-24T11:30:44;26.40;36.10
45843;DHT22;31563;51.744;8.252;2023-05-24T11:33:16;26.60;36.00
45843;DHT22;31563;51.744;8.252;2023-05-24T11:35:46;26.90;36.00
45843;DHT22;31563;51.744;8.252;2023-05-24T11:38:15;27.10;35.60
45843;DHT22;31563;51.744;8.252;2023-05-24T11:40:44;27.40;35.50
45843;DHT22;31563;51.744;8.252;2023-05-24T11:43:14;27.50;35.10
45843;DHT22;31563;51.744;8.252;2023-05-24T11:45:45;27.50;34.90
45843;DHT22;31563;51.744;8.252;2023-05-24T11:48:14;27.50;35.00
45843;DHT22;31563;51.744;8.252;2023-05-24T11:50:44;27.50;35.80
45843;DHT22;31563;51.744;8.252;2023-05-24T11:53:17;27.50;35.10
45843;DHT22;31563;51.744;8.252;2023-05-24T11:55:45;27.70;35.20
45843;DHT22;31563;51.744;8.252;2023-05-24T11:58:21;27.80;35.20
45843;DHT22;31563;51.744;8.252;2023-05-24T12:00:51;27.80;35.00
45843;DHT22;31563;51.744;8.252;2023-05-24T12:03:19;27.80;35.00
45843;DHT22;31563;51.744;8.252;2023-05-24T12:05:48;27.90;35.10
45843;DHT22;31563;51.744;8.252;2023-05-24T12:08:19;28.00;34.90
45843;DHT22;31563;51.744;8.252;2023-05-24T12:10:48;27.80;34.80
45843;DHT22;31563;51.744;8.252;2023-05-24T12:13:20;27.70;34.80
45843;DHT22;31563;51.744;8.252;2023-05-24T12:15:52;27.60;35.00
45843;DHT22;31563;51.744;8.252;2023-05-24T12:18:23;27.60;35.20
45843;DHT22;31563;51.744;8.252;2023-05-24T12:20:52;27.50;35.30
45843;DHT22;31563;51.744;8.252;2023-05-24T12:23:22;27.50;35.30
45843;DHT22;31563;51.744;8.252;2023-05-24T12:25:56;27.50;35.40
45843;DHT22;31563;51.744;8.252;2023-05-24T12:28:25;27.50;35.40
45843;DHT22;31563;51.744;8.252;2023-05-24T12:30:54;27.50;35.50
45843;DHT22;31563;51.744;8.252;2023-05-24T12:33:23;27.60;35.70
45843;DHT22;31563;51.744;8.252;2023-05-24T12:35:52;27.70;35.70
45843;DHT22;31563;51.744;8.252;2023-05-24T12:38:22;27.80;35.70
45843;DHT22;31563;51.744;8.252;2023-05-24T12:40:52;27.80;35.60
45843;DHT22;31563;51.744;8.252;2023-05-24T12:43:39;27.80;35.60
45843;DHT22;31563;51.744;8.252;2023-05-24T12:46:08;27.80;35.60
45843;DHT22;31563;51.744;8.252;2023-05-24T12:48:37;27.90;35.70
45843;DHT22;31563;51.744;8.252;2023-05-24T12:51:05;27.90;35.70
45843;DHT22;31563;51.744;8.252;2023-05-24T12:53:34;28.00;35.80
45843;DHT22;31563;51.744;8.252;2023-05-24T12:56:03;28.10;35.80
45843;DHT22;31563;51.744;8.252;2023-05-24T12:58:31;28.20;35.70
45843;DHT22;31563;51.744;8.252;2023-05-24T13:00:59;28.20;35.60
45843;DHT22;31563;51.744;8.252;2023-05-24T13:03:29;28.10;35.50
45843;DHT22;31563;51.744;8.252;2023-05-24T13:05:57;28.10;35.60
45843;DHT22;31563;51.744;8.252;2023-05-24T13:08:26;28.10;35.70
45843;DHT22;31563;51.744;8.252;2023-05-24T13:10:55;28.00;35.70
45843;DHT22;31563;51.744;8.252;2023-05-24T13:13:24;28.00;36.50
45843;DHT22;31563;51.744;8.252;2023-05-24T13:15:52;28.00;35.90
45843;DHT22;31563;51.744;8.252;2023-05-24T13:18:20;28.10;36.00
45843;DHT22;31563;51.744;8.252;2023-05-24T13:20:50;28.10;35.90
45843;DHT22;31563;51.744;8.252;2023-05-24T13:23:19;28.10;35.90
45843;DHT22;31563;51.744;8.252;2023-05-24T13:25:47;28.10;35.80
45843;DHT22;31563;51.744;8.252;2023-05-24T13:28:15;28.10;35.90
45843;DHT22;31563;51.744;8.252;2023-05-24T13:30:43;28.00;35.90
45843;DHT22;31563;51.744;8.252;2023-05-24T13:33:12;27.90;36.00
45843;DHT22;31563;51.744;8.252;2023-05-24T13:35:40;28.00;36.10
45843;DHT22;31563;51.744;8.252;2023-05-24T13:38:10;27.70;34.60
45843;DHT22;31563;51.744;8.252;2023-05-24T13:40:39;27.60;35.60
45843;DHT22;31563;51.744;8.252;2023-05-24T13:43:07;27.50;36.60
45843;DHT22;31563;51.744;8.252;2023-05-24T13:45:36;27.50;37.00
45843;DHT22;31563;51.744;8.252;2023-05-24T13:48:04;27.50;37.00
45843;DHT22;31563;51.744;8.252;2023-05-24T13:50:33;27.40;37.10
45843;DHT22;31563;51.744;8.252;2023-05-24T13:53:03;27.30;37.20
45843;DHT22;31563;51.744;8.252;2023-05-24T13:55:33;27.20;37.20
45843;DHT22;31563;51.744;8.252;2023-05-24T13:58:03;27.20;37.40
45843;DHT22;31563;51.744;8.252;2023-05-24T14:00:32;27.10;37.40
45843;DHT22;31563;51.744;8.252;2023-05-24T14:03:02;27.00;37.50
45843;DHT22;31563;51.744;8.252;2023-05-24T14:05:31;26.90;37.70
45843;DHT22;31563;51.744;8.252;2023-05-24T14:08:00;26.90;37.70
45843;DHT22;31563;51.744;8.252;2023-05-24T14:10:34;26.80;37.80
45843;DHT22;31563;51.744;8.252;2023-05-24T14:13:03;26.90;37.90
45843;DHT22;31563;51.744;8.252;2023-05-24T14:15:51;27.00;38.10
45843;DHT22;31563;51.744;8.252;2023-05-24T14:18:20;27.10;38.00
45843;DHT22;31563;51.744;8.252;2023-05-24T14:20:48;27.30;38.00
45843;DHT22;31563;51.744;8.252;2023-05-24T14:23:16;27.40;37.90
45843;DHT22;31563;51.744;8.252;2023-05-24T14:25:46;27.40;37.70
45843;DHT22;31563;51.744;8.252;2023-05-24T14:28:14;27.40;37.70
45843;DHT22;31563;51.744;8.252;2023-05-24T14:30:42;27.50;37.60
45843;DHT22;31563;51.744;8.252;2023-05-24T14:33:10;27.50;37.80
45843;DHT22;31563;51.744;8.252;2023-05-24T14:35:39;27.60;38.10
45843;DHT22;31563;51.744;8.252;2023-05-24T14:38:09;27.70;38.20
45843;DHT22;31563;51.744;8.252;2023-05-24T14:40:38;27.90;38.40
45843;DHT22;31563;51.744;8.252;2023-05-24T14:43:08;28.00;38.50
45843;DHT22;31563;51.744;8.252;2023-05-24T14:45:37;28.10;38.50
45843;DHT22;31563;51.744;8.252;2023-05-24T14:48:07;28.20;38.40
45843;DHT22;31563;51.744;8.252;2023-05-24T14:50:38;28.40;38.50
45843;DHT22;31563;51.744;8.252;2023-05-24T14:53:06;28.40;38.40
45843;DHT22;31563;51.744;8.252;2023-05-24T14:55:38;28.40;38.30
45843;DHT22;31563;51.744;8.252;2023-05-24T14:58:10;28.40;38.40
45843;DHT22;31563;51.744;8.252;2023-05-24T15:00:39;28.30;38.60
45843;DHT22;31563;51.744;8.252;2023-05-24T15:03:08;28.30;38.70
45843;DHT22;31563;51.744;8.252;2023-05-24T15:05:38;28.30;38.90
45843;DHT22;31563;51.744;8.252;2023-05-24T15:08:07;28.30;39.00
45843;DHT22;31563;51.744;8.252;2023-05-24T15:10:36;28.30;39.10
45843;DHT22;31563;51.744;8.252;2023-05-24T15:13:06;28.10;39.00
45843;DHT22;31563;51.744;8.252;2023-05-24T15:15:35;28.00;39.20
45843;DHT22;31563;51.744;8.252;2023-05-24T15:18:03;27.80;39.40
45843;DHT22;31563;51.744;8.252;2023-05-24T15:20:32;27.60;39.70
45843;DHT22;31563;51.744;8.252;2023-05-24T15:23:02;27.50;40.10
45843;DHT22;31563;51.744;8.252;2023-05-24T15:25:30;27.30;40.40
45843;DHT22;31563;51.744;8.252;2023-05-24T15:27:58;27.10;40.50
45843;DHT22;31563;51.744;8.252;2023-05-24T15:30:27;26.90;40.60
45843;DHT22;31563;51.744;8.252;2023-05-24T15:32:56;26.70;38.30
45843;DHT22;31563;51.744;8.252;2023-05-24T15:35:24;26.40;38.40
45843;DHT22;31563;51.744;8.252;2023-05-24T15:37:53;26.30;39.00
45843;DHT22;31563;51.744;8.252;2023-05-24T15:40:21;26.20;38.40
45843;DHT22;31563;51.744;8.252;2023-05-24T15:42:50;25.80;37.10
45843;DHT22;31563;51.744;8.252;2023-05-24T15:45:19;25.50;37.70
45843;DHT22;31563;51.744;8.252;2023-05-24T15:47:48;25.20;37.60
45843;DHT22;31563;51.744;8.252;2023-05-24T15:50:17;25.00;37.70